Streeter, ND (58483)

12:54 PM CDT on July 29, 2014 (GMT -0500)
GACKLE, NORTH DAKOTA (KNDGACKL1) Elev 1951 ft | 46.63 °N, 99.14 °W | Change Station

Current weather conditions updated 2 seconds ago

Scattered Clouds
Scattered Clouds
72.1 °F
Feels Like 77 °F
N
3.0
Wind Variable Wind from NNE
Gusts 9.0 mph

Today is forecast to be Much Warmer than yesterday.

Today
High -- | Low -- °F
--% Chance of Precip.
Yesterday
High -- | Low -- °F
Precip. -- in
6:14 AM 9:12 PM
Waxing Crescent, 7% visible
Pressure 30.20 in
Visibility 10.0 miles
Clouds Scattered Clouds 5500 ft
Heat Index 77 °F
Dew Point 54 °F
Humidity 52%
Rainfall 0.00 in
Snow Depth Not available.
UV 7 out of 12
Pollen 7.50 out of 12
Air Quality Not available.
Flu Activity Not available.
METAR KJMS 291656Z AUTO 35006KT 10SM SCT055 22/11 A3020 RMK AO2 SLP227 T02170111

More Conditions Fewer Conditions

Pressure 30.20 in
Visibility 10.0 miles
Clouds Scattered Clouds 5500 ft
Heat Index 77 °F
Dew Point 54 °F
Humidity 52%
Rainfall 0.00 in
Snow Depth Not available.
UV 7 out of 12
Pollen 7.50 out of 12
Air Quality Not available.
Flu Activity Not available.
METAR KJMS 291656Z AUTO 35006KT 10SM SCT055 22/11 A3020 RMK AO2 SLP227 T02170111

More Conditions Fewer Conditions

10-Day Weather Forecast

Almanac

Astronomy

Jul. 29, 2014 Rise Set
Actual Time 6:14 AM CDT 9:12 PM CDT
Civil Twilight 5:38 AM CDT 9:48 PM CDT
Nautical Twilight 4:52 AM CDT 10:33 PM CDT
Astronomical Twilight 3:57 AM CDT 11:28 PM CDT
Moon 9:05 AM CDT 10:11 PM CDT
Length of Visible Light 16h 09m
Length of Day
14h 58m
Tomorrow will be 2m 29s shorter.
Waxing Crescent, 7% of the Moon is Illuminated
Today
Waxing Crescent
Aug 3
First Quarter
Aug 10
Full
Aug 17
Last Quarter
Aug 25
New

Today's Extremes

State Highs State Lows

Community

WunderPhotos

Upload Photos

1,738,803 photos uploaded!

WunderBlogs® & News

Nearby

Snow Depth

Station Depth Elevation
No new snow has been reported.

Earthquake Activity

City Distance Mag. Time & Date
No recent earthquake activity has been reported nearby.
Minimum magnitude displayed is 2.5.

Coastal Water Temperatures

Place Temperature
No Stations Reporting

Nearby Weather Stations

Station Location Temp. Heat Index Dew Point Humidity Wind Precip. Elev Updated Type
GACKLE, NORTH DAKOTA, Gackle, ND 72.1 °F 77 °F 54 °F 52% NNE  at  3.0 mph 0.00 in / hr 1951 ft 12:54 PM CDT Rapid Fire
58th St SE, Napoleon, ND 72.8 °F 77 °F 55 °F 53% NE  at  4.0 mph 0.00 in / hr 2014 ft 12:53 PM CDT Normal
Eldridge-Lippert, Jamestown, ND 74.6 °F 77 °F 57 °F 54% WNW  at  2.0 mph 0.00 in / hr 1649 ft 12:53 PM CDT Rapid Fire

Show More Stations Show Fewer Stations